createdAt,value
2017-07-09T00:00:14.485Z,17.64
2017-07-09T00:01:29.941Z,17.65
2017-07-09T00:02:45.619Z,17.61
2017-07-09T00:04:01.093Z,17.6
2017-07-09T00:05:16.517Z,17.61
2017-07-09T00:06:32.024Z,17.61
2017-07-09T00:07:47.711Z,17.64
2017-07-09T00:09:03.200Z,17.62
2017-07-09T00:10:19.050Z,17.62
2017-07-09T00:11:34.529Z,17.57
2017-07-09T00:12:50.225Z,17.55
2017-07-09T00:14:05.690Z,17.54
2017-07-09T00:15:21.376Z,17.52
2017-07-09T00:16:36.495Z,17.52
2017-07-09T00:17:52.189Z,17.5
2017-07-09T00:19:07.612Z,17.52
2017-07-09T00:20:21.817Z,17.58
2017-07-09T00:21:37.286Z,17.57
2017-07-09T00:22:52.983Z,17.62
2017-07-09T00:24:08.463Z,17.64
2017-07-09T00:25:37.374Z,17.58
2017-07-09T00:26:52.849Z,17.57
2017-07-09T00:28:08.207Z,17.61
2017-07-09T00:29:23.697Z,17.58
2017-07-09T00:30:39.280Z,17.55
2017-07-09T00:31:54.746Z,17.57
2017-07-09T00:33:10.471Z,17.62
2017-07-09T00:34:25.918Z,17.61
2017-07-09T00:35:41.415Z,17.6
2017-07-09T00:36:56.888Z,17.6
2017-07-09T00:38:26.127Z,17.68
2017-07-09T00:39:41.622Z,17.62
2017-07-09T00:40:57.445Z,17.61
2017-07-09T00:42:12.890Z,17.6
2017-07-09T00:43:28.618Z,17.64
2017-07-09T00:44:43.899Z,17.55
2017-07-09T00:45:59.332Z,17.61
2017-07-09T00:47:14.785Z,17.62
2017-07-09T00:48:30.555Z,17.52
2017-07-09T00:49:46.026Z,17.47
2017-07-09T00:51:01.491Z,17.52
2017-07-09T00:52:17.246Z,17.45
2017-07-09T00:53:32.959Z,17.49
2017-07-09T00:54:47.074Z,17.46
2017-07-09T00:56:02.475Z,17.39
2017-07-09T00:57:17.958Z,17.39
2017-07-09T00:58:33.690Z,17.43
2017-07-09T00:59:49.114Z,17.38
2017-07-09T01:01:04.783Z,17.3
2017-07-09T01:02:18.818Z,17.35
2017-07-09T01:03:35.050Z,17.36
2017-07-09T01:04:50.588Z,17.39
2017-07-09T01:06:06.030Z,17.38
2017-07-09T01:07:21.466Z,17.28
2017-07-09T01:08:37.178Z,17.28
2017-07-09T01:09:52.245Z,17.27
2017-07-09T01:11:06.391Z,17.24
2017-07-09T01:12:21.952Z,17.31
2017-07-09T01:13:37.845Z,17.17
2017-07-09T01:14:53.327Z,17.2
2017-07-09T01:16:08.708Z,17.11
2017-07-09T01:17:24.183Z,17.12
2017-07-09T01:19:10.908Z,17.16
2017-07-09T01:20:26.353Z,17.04
2017-07-09T01:23:10.814Z,17.02
2017-07-09T01:24:26.148Z,17.11
2017-07-09T01:25:41.419Z,17.11
2017-07-09T01:26:56.849Z,17.09
2017-07-09T01:28:12.310Z,17.05
2017-07-09T01:29:28.033Z,17.01
2017-07-09T01:30:43.521Z,16.96
2017-07-09T01:31:56.226Z,17.08
2017-07-09T01:33:11.645Z,16.94
2017-07-09T01:34:26.079Z,16.96
2017-07-09T01:35:41.495Z,17.02
2017-07-09T01:36:56.926Z,17.04
2017-07-09T01:38:12.332Z,17.05
2017-07-09T01:39:28.039Z,17.06
2017-07-09T01:40:43.679Z,17.01
2017-07-09T01:41:59.148Z,17.05
2017-07-09T01:43:13.148Z,17.11
2017-07-09T01:44:28.961Z,17.04
2017-07-09T01:45:44.554Z,17.04
2017-07-09T01:46:59.992Z,17.08
2017-07-09T01:48:15.443Z,17.08
2017-07-09T01:49:31.255Z,17.02
2017-07-09T01:50:46.918Z,17.12
2017-07-09T01:52:02.372Z,17.05
2017-07-09T01:53:17.817Z,17.05
2017-07-09T01:54:33.622Z,17.05
2017-07-09T01:55:49.016Z,16.98
2017-07-09T01:57:04.494Z,16.94
2017-07-09T01:58:20.122Z,16.87
2017-07-09T01:59:35.895Z,16.82
2017-07-09T02:00:51.315Z,16.74
2017-07-09T02:02:06.790Z,16.75
2017-07-09T02:03:21.932Z,16.72
2017-07-09T02:04:37.710Z,16.72
2017-07-09T02:05:53.396Z,16.74
2017-07-09T02:07:08.942Z,16.75
2017-07-09T02:08:24.015Z,16.75
2017-07-09T02:09:38.418Z,16.71
2017-07-09T02:10:53.544Z,16.66
2017-07-09T02:12:08.968Z,16.69
2017-07-09T02:13:24.453Z,16.69
2017-07-09T02:14:40.125Z,16.66
2017-07-09T02:15:55.589Z,16.62
2017-07-09T02:17:11.205Z,16.57
2017-07-09T02:18:26.705Z,16.64
2017-07-09T02:19:42.485Z,16.61
2017-07-09T02:20:57.910Z,16.59
2017-07-09T02:22:13.365Z,16.54
2017-07-09T02:24:58.113Z,16.44
2017-07-09T02:26:13.548Z,16.49
2017-07-09T02:27:29.045Z,16.47
2017-07-09T02:28:44.490Z,16.47
2017-07-09T02:30:00.215Z,16.42
2017-07-09T02:31:15.666Z,16.5
2017-07-09T02:32:31.100Z,16.5
2017-07-09T02:33:46.504Z,16.54
2017-07-09T02:35:01.250Z,16.47
2017-07-09T02:36:16.736Z,16.44
2017-07-09T02:37:29.570Z,16.42
2017-07-09T02:38:43.717Z,16.35
2017-07-09T02:39:59.595Z,16.35
2017-07-09T02:41:15.074Z,16.32
2017-07-09T02:42:30.531Z,16.27
2017-07-09T02:43:46.022Z,16.27
2017-07-09T02:45:01.717Z,16.25
2017-07-09T02:46:17.179Z,16.31
2017-07-09T02:47:32.278Z,16.38
2017-07-09T02:48:47.737Z,16.34
2017-07-09T02:50:03.413Z,16.28
2017-07-09T02:51:18.923Z,16.28
2017-07-09T02:52:34.392Z,16.28
2017-07-09T02:53:48.372Z,16.17
2017-07-09T02:55:02.754Z,16.21
2017-07-09T02:56:18.417Z,16.14
2017-07-09T02:57:47.330Z,16.16
2017-07-09T02:59:02.767Z,16.2
2017-07-09T03:00:18.422Z,16.14
2017-07-09T03:01:34.159Z,16.21
2017-07-09T03:02:49.736Z,16.16
2017-07-09T03:04:05.157Z,16.29
2017-07-09T03:05:21.035Z,16.19
2017-07-09T03:06:36.650Z,16.35
2017-07-09T03:07:52.050Z,16.21
2017-07-09T03:09:07.473Z,16.34
2017-07-09T03:10:23.154Z,16.28
2017-07-09T03:11:39.060Z,16.27
2017-07-09T03:12:54.481Z,16.19
2017-07-09T03:14:09.925Z,16.2
2017-07-09T03:15:25.763Z,16.2
2017-07-09T03:16:41.247Z,16.16
2017-07-09T03:17:56.707Z,16.19
2017-07-09T03:19:12.211Z,16.19
2017-07-09T03:20:27.906Z,16.16
2017-07-09T03:21:42.055Z,16.14
2017-07-09T03:22:57.546Z,16.21
2017-07-09T03:24:13.222Z,16.21
2017-07-09T03:25:29.130Z,16.28
2017-07-09T03:26:44.688Z,16.28
2017-07-09T03:28:00.113Z,16.21
2017-07-09T03:29:15.582Z,16.24
2017-07-09T03:30:31.296Z,16.27
2017-07-09T03:31:46.719Z,16.17
2017-07-09T03:33:02.525Z,16.17
2017-07-09T03:34:17.884Z,16.16
2017-07-09T03:35:31.290Z,16.11
2017-07-09T03:36:45.453Z,16.13
2017-07-09T03:37:59.470Z,16.01
2017-07-09T03:39:14.762Z,16.06
2017-07-09T03:40:30.467Z,15.96
2017-07-09T03:41:45.940Z,16.02
2017-07-09T03:43:01.351Z,16.02
2017-07-09T03:44:16.493Z,15.98
2017-07-09T03:45:32.164Z,15.99
2017-07-09T03:46:47.607Z,16.01
2017-07-09T03:48:03.029Z,15.99
2017-07-09T03:49:17.316Z,15.99
2017-07-09T03:50:32.982Z,16.04
2017-07-09T03:51:48.390Z,15.98
2017-07-09T03:53:02.503Z,15.98
2017-07-09T03:54:17.977Z,16.01
2017-07-09T03:55:33.694Z,15.98
2017-07-09T03:56:49.114Z,15.95
2017-07-09T03:58:04.537Z,15.99
2017-07-09T03:59:19.989Z,15.94
2017-07-09T04:00:35.627Z,15.92
2017-07-09T04:02:21.906Z,15.8
2017-07-09T04:03:37.560Z,15.96
2017-07-09T04:04:53.020Z,15.99
2017-07-09T04:06:08.720Z,15.82
2017-07-09T04:07:23.961Z,15.91
2017-07-09T04:08:39.395Z,15.91
2017-07-09T04:09:54.797Z,15.89
2017-07-09T04:11:10.612Z,15.84
2017-07-09T04:12:26.041Z,15.76
2017-07-09T04:13:41.495Z,15.87
2017-07-09T04:14:56.589Z,15.88
2017-07-09T04:16:12.240Z,15.88
2017-07-09T04:17:27.648Z,15.92
2017-07-09T04:18:43.123Z,15.88
2017-07-09T04:19:58.593Z,15.82
2017-07-09T04:21:13.920Z,15.95
2017-07-09T04:22:29.529Z,15.82
2017-07-09T04:23:44.975Z,15.84
2017-07-09T04:25:00.456Z,15.87
2017-07-09T04:26:16.384Z,15.79
2017-07-09T04:27:31.793Z,15.78
2017-07-09T04:28:46.964Z,15.76
2017-07-09T04:30:14.649Z,15.8
2017-07-09T04:31:30.342Z,15.82
2017-07-09T04:32:45.994Z,15.82
2017-07-09T04:34:01.430Z,15.66
2017-07-09T04:35:16.973Z,15.7
2017-07-09T04:36:32.690Z,15.66
2017-07-09T04:37:48.147Z,15.64
2017-07-09T04:39:03.624Z,15.68
2017-07-09T04:40:17.873Z,15.68
2017-07-09T04:41:33.598Z,15.66
2017-07-09T04:42:49.066Z,15.73
2017-07-09T04:44:04.561Z,15.7
2017-07-09T04:45:20.040Z,15.75
2017-07-09T04:46:34.512Z,15.63
2017-07-09T04:47:49.966Z,15.57
2017-07-09T04:49:05.467Z,15.64
2017-07-09T04:50:20.996Z,15.54
2017-07-09T04:51:36.917Z,15.63
2017-07-09T04:52:52.327Z,15.54
2017-07-09T04:54:07.400Z,15.57
2017-07-09T04:55:22.850Z,15.57
2017-07-09T04:56:38.506Z,15.51
2017-07-09T04:57:53.939Z,15.57
2017-07-09T04:59:09.345Z,15.55
2017-07-09T05:00:23.484Z,15.46
2017-07-09T05:01:39.140Z,15.43
2017-07-09T05:02:54.805Z,15.39
2017-07-09T05:04:10.275Z,15.36
2017-07-09T05:05:26.034Z,15.27
2017-07-09T05:06:41.715Z,15.32
2017-07-09T05:07:57.368Z,15.24
2017-07-09T05:09:12.792Z,15.21
2017-07-09T05:10:28.460Z,15.3
2017-07-09T05:11:44.127Z,15.27
2017-07-09T05:12:59.538Z,15.24
2017-07-09T05:14:14.645Z,15.23
2017-07-09T05:15:30.031Z,15.23
2017-07-09T05:16:45.727Z,15.06
2017-07-09T05:18:01.429Z,15.09
2017-07-09T05:19:16.808Z,14.96
2017-07-09T05:20:32.258Z,14.84
2017-07-09T05:21:47.950Z,14.9
2017-07-09T05:23:03.479Z,14.8
2017-07-09T05:24:18.941Z,14.72
2017-07-09T05:25:34.333Z,14.66
2017-07-09T05:26:50.065Z,14.69
2017-07-09T05:28:05.495Z,14.75
2017-07-09T05:29:20.950Z,14.63
2017-07-09T05:30:36.389Z,14.63
2017-07-09T05:31:52.048Z,14.66
2017-07-09T05:33:06.176Z,14.58
2017-07-09T05:34:21.319Z,14.6
2017-07-09T05:35:35.081Z,14.52
2017-07-09T05:36:50.744Z,14.6
2017-07-09T05:38:06.602Z,14.5
2017-07-09T05:39:22.024Z,14.52
2017-07-09T05:40:37.476Z,14.37
2017-07-09T05:41:53.204Z,14.37
2017-07-09T05:43:08.616Z,14.34
2017-07-09T05:44:24.054Z,14.36
2017-07-09T05:45:39.682Z,14.51
2017-07-09T05:46:55.379Z,14.5
2017-07-09T05:48:11.284Z,14.34
2017-07-09T05:49:25.408Z,14.36
2017-07-09T05:50:40.457Z,14.34
2017-07-09T05:51:56.198Z,14.43
2017-07-09T05:53:11.682Z,14.31
2017-07-09T05:54:27.102Z,14.28
2017-07-09T05:55:42.567Z,14.43
2017-07-09T05:56:58.426Z,14.39
2017-07-09T05:58:13.815Z,14.52
2017-07-09T05:59:29.537Z,14.51
2017-07-09T06:00:43.701Z,14.47
2017-07-09T06:01:59.399Z,14.48
2017-07-09T06:03:15.069Z,14.29
2017-07-09T06:04:30.496Z,14.39
2017-07-09T06:05:45.608Z,14.26
2017-07-09T06:07:01.288Z,14.24
2017-07-09T06:08:16.771Z,14.26
2017-07-09T06:09:30.912Z,14.21
2017-07-09T06:10:46.355Z,14.22
2017-07-09T06:12:02.051Z,14.26
2017-07-09T06:13:17.472Z,14.39
2017-07-09T06:14:32.879Z,14.4
2017-07-09T06:15:48.342Z,14.54
2017-07-09T06:17:04.018Z,14.52
2017-07-09T06:18:19.422Z,14.58
2017-07-09T06:19:34.917Z,14.5
2017-07-09T06:21:03.826Z,14.47
2017-07-09T06:22:18.196Z,14.51
2017-07-09T06:23:33.646Z,14.52
2017-07-09T06:24:49.272Z,14.52
2017-07-09T06:26:04.673Z,14.54
2017-07-09T06:27:20.451Z,14.62
2017-07-09T06:28:35.913Z,14.54
2017-07-09T06:29:51.366Z,14.65
2017-07-09T06:31:06.845Z,14.51
2017-07-09T06:32:22.535Z,14.56
2017-07-09T06:33:37.984Z,14.67
2017-07-09T06:34:53.687Z,14.65
2017-07-09T06:36:09.114Z,14.54
2017-07-09T06:37:24.813Z,14.56
2017-07-09T06:38:40.310Z,14.52
2017-07-09T06:39:55.778Z,14.5
2017-07-09T06:41:11.453Z,14.56
2017-07-09T06:42:27.192Z,14.62
2017-07-09T06:43:42.655Z,14.66
2017-07-09T06:44:56.770Z,14.54
2017-07-09T06:46:12.242Z,14.65
2017-07-09T06:47:41.517Z,14.6
2017-07-09T06:48:56.993Z,14.62
2017-07-09T06:50:12.465Z,14.62
2017-07-09T06:51:27.905Z,14.65
2017-07-09T06:52:43.626Z,14.65
2017-07-09T06:53:59.090Z,14.66
2017-07-09T06:55:14.187Z,14.66
2017-07-09T06:56:30.305Z,14.8
2017-07-09T06:57:46.103Z,14.74
2017-07-09T06:59:13.746Z,14.83
2017-07-09T07:00:28.789Z,14.85
2017-07-09T07:01:44.237Z,14.9
2017-07-09T07:03:00.003Z,14.91
2017-07-09T07:04:15.432Z,14.99
2017-07-09T07:05:30.849Z,14.91
2017-07-09T07:06:46.296Z,15.03
2017-07-09T07:08:01.971Z,14.99
2017-07-09T07:09:17.075Z,14.93
2017-07-09T07:10:32.540Z,15.06
2017-07-09T07:11:47.980Z,15.03
2017-07-09T07:13:03.746Z,15.02
2017-07-09T07:14:19.156Z,15.08
2017-07-09T07:15:34.618Z,15
2017-07-09T07:16:50.010Z,15.05
2017-07-09T07:18:05.727Z,14.98
2017-07-09T07:19:21.137Z,15.06
2017-07-09T07:20:36.551Z,15.05
2017-07-09T07:21:49.018Z,15.06
2017-07-09T07:23:04.709Z,15.03
2017-07-09T07:24:20.162Z,15.13
2017-07-09T07:25:35.737Z,15.17
2017-07-09T07:26:51.293Z,15.23
2017-07-09T07:28:07.047Z,15.09
2017-07-09T07:29:22.529Z,15.11
2017-07-09T07:30:38.032Z,15.14
2017-07-09T07:31:53.502Z,15.14
2017-07-09T07:33:09.424Z,15.03
2017-07-09T07:34:24.834Z,15.06
2017-07-09T07:35:40.341Z,15.08
2017-07-09T07:36:55.995Z,15.15
2017-07-09T07:38:11.702Z,15.11
2017-07-09T07:39:27.244Z,15.18
2017-07-09T07:40:42.672Z,15.21
2017-07-09T07:41:58.140Z,15.21
2017-07-09T07:43:13.921Z,15.23
2017-07-09T07:44:29.498Z,15.24
2017-07-09T07:45:43.329Z,15.33
2017-07-09T07:46:58.792Z,15.38
2017-07-09T07:48:14.484Z,15.39
2017-07-09T07:49:29.960Z,15.45
2017-07-09T07:50:45.434Z,15.46
2017-07-09T07:52:00.891Z,15.45
2017-07-09T07:53:16.545Z,15.45
2017-07-09T07:54:30.624Z,15.48
2017-07-09T07:55:44.727Z,15.54
2017-07-09T07:57:00.175Z,15.54
2017-07-09T07:58:15.917Z,15.43
2017-07-09T07:59:31.412Z,15.45
2017-07-09T08:00:46.842Z,15.45
2017-07-09T08:02:02.401Z,15.38
2017-07-09T08:03:18.135Z,15.36
2017-07-09T08:04:33.587Z,15.36
2017-07-09T08:05:49.119Z,15.39
2017-07-09T08:07:04.582Z,15.33
2017-07-09T08:08:20.294Z,15.35
2017-07-09T08:09:35.768Z,15.42
2017-07-09T08:10:51.267Z,15.45
2017-07-09T08:12:06.707Z,15.45
2017-07-09T08:13:22.433Z,15.46
2017-07-09T08:14:38.135Z,15.5
2017-07-09T08:15:53.600Z,15.63
2017-07-09T08:17:09.006Z,15.55
2017-07-09T08:18:24.665Z,15.63
2017-07-09T08:19:40.089Z,15.61
2017-07-09T08:20:54.222Z,15.7
2017-07-09T08:22:09.703Z,15.64
2017-07-09T08:23:25.408Z,15.69
2017-07-09T08:24:40.901Z,15.75
2017-07-09T08:25:56.347Z,15.8
2017-07-09T08:27:12.164Z,15.94
2017-07-09T08:28:27.861Z,15.95
2017-07-09T08:29:43.352Z,15.96
2017-07-09T08:30:58.760Z,16.07
2017-07-09T08:32:14.329Z,16.14
2017-07-09T08:33:30.093Z,16.13
2017-07-09T08:34:45.522Z,16.2
2017-07-09T08:36:00.985Z,16.13
2017-07-09T08:37:16.501Z,16.11
2017-07-09T08:38:32.260Z,16.29
2017-07-09T08:39:47.500Z,16.36
2017-07-09T08:41:02.965Z,16.54
2017-07-09T08:42:18.431Z,16.54
2017-07-09T08:43:34.177Z,16.71
2017-07-09T08:44:49.627Z,16.79
2017-07-09T08:46:05.058Z,17.01
2017-07-09T08:47:20.545Z,17.12
2017-07-09T08:48:36.255Z,17.21
2017-07-09T08:49:51.705Z,17.28
2017-07-09T08:51:07.185Z,17.46
2017-07-09T08:52:22.627Z,17.45
2017-07-09T08:53:38.358Z,17.62
2017-07-09T08:54:53.803Z,17.72
2017-07-09T08:56:09.531Z,17.76
2017-07-09T08:57:24.987Z,17.91
2017-07-09T08:58:40.772Z,18
2017-07-09T08:59:56.429Z,18.02
2017-07-09T09:01:11.971Z,18.19
2017-07-09T09:02:27.448Z,18.42
2017-07-09T09:03:43.156Z,18.3
2017-07-09T09:04:58.617Z,18.49
2017-07-09T09:06:14.096Z,18.5
2017-07-09T09:08:58.751Z,18.6
2017-07-09T09:10:14.242Z,18.63
2017-07-09T09:11:29.968Z,18.79
2017-07-09T09:12:45.063Z,19
2017-07-09T09:14:00.779Z,19.13
2017-07-09T09:15:16.259Z,19.23
2017-07-09T09:16:30.459Z,19.3
2017-07-09T09:17:45.999Z,19.25
2017-07-09T09:19:02.046Z,19.28
2017-07-09T09:20:17.656Z,19.42
2017-07-09T09:21:33.067Z,19.64
2017-07-09T09:22:47.168Z,19.93
2017-07-09T09:24:01.659Z,20.08
2017-07-09T09:25:15.898Z,20.28
2017-07-09T09:27:01.795Z,20.79
2017-07-09T09:28:17.285Z,20.96
2017-07-09T09:29:33.449Z,21.12
2017-07-09T09:30:48.928Z,21.33
2017-07-09T09:32:04.502Z,21.73
2017-07-09T09:33:19.540Z,21.96
2017-07-09T09:34:35.307Z,22.05
2017-07-09T09:35:50.744Z,22.11
2017-07-09T09:37:06.233Z,22.16
2017-07-09T09:38:21.714Z,22.11
2017-07-09T09:39:37.415Z,21.93
2017-07-09T09:40:52.886Z,21.75
2017-07-09T09:42:07.037Z,21.86
2017-07-09T09:43:21.096Z,21.84
2017-07-09T09:44:36.846Z,21.97
2017-07-09T09:45:52.482Z,21.93
2017-07-09T09:47:07.975Z,21.96
2017-07-09T09:48:23.644Z,21.97
2017-07-09T09:49:39.396Z,21.93
2017-07-09T09:50:54.862Z,21.96
2017-07-09T09:52:10.356Z,22.11
2017-07-09T09:53:56.565Z,22.12
2017-07-09T09:55:12.501Z,22.03
2017-07-09T09:56:28.170Z,22.02
2017-07-09T09:57:43.650Z,22.02
2017-07-09T09:58:59.102Z,21.98
2017-07-09T10:00:14.854Z,22.01
2017-07-09T10:01:30.320Z,22.18
2017-07-09T10:02:45.769Z,22.05
2017-07-09T10:04:01.274Z,22.06
2017-07-09T10:05:16.636Z,21.97
2017-07-09T10:06:32.171Z,21.87
2017-07-09T10:07:47.661Z,21.68
2017-07-09T10:09:03.140Z,21.71
2017-07-09T10:10:17.522Z,21.66
2017-07-09T10:11:32.990Z,21.68
2017-07-09T10:12:48.582Z,21.6
2017-07-09T10:14:04.082Z,21.57
2017-07-09T10:15:19.509Z,21.64
2017-07-09T10:16:35.012Z,21.66
2017-07-09T10:17:50.494Z,21.69
2017-07-09T10:19:06.111Z,21.75
2017-07-09T10:20:21.863Z,21.79
2017-07-09T10:21:37.305Z,21.75
2017-07-09T10:22:51.730Z,21.75
2017-07-09T10:24:07.179Z,21.9
2017-07-09T10:25:21.584Z,22.01
2017-07-09T10:26:37.063Z,21.98
2017-07-09T10:27:52.516Z,22.03
2017-07-09T10:29:08.022Z,22.05
2017-07-09T10:30:22.543Z,22.08
2017-07-09T10:31:38.097Z,22.15
2017-07-09T10:32:53.668Z,22.23
2017-07-09T10:34:07.851Z,22.18
2017-07-09T10:35:23.646Z,22.26
2017-07-09T10:38:08.546Z,22.38
2017-07-09T10:39:24.353Z,22.43
2017-07-09T10:40:38.586Z,22.63
2017-07-09T10:41:54.571Z,22.83
2017-07-09T10:43:10.195Z,22.9
2017-07-09T10:44:25.630Z,23.11
2017-07-09T10:45:39.780Z,23.06
2017-07-09T10:46:55.529Z,23.16
2017-07-09T10:48:09.741Z,23.36
2017-07-09T10:49:25.362Z,23.36
2017-07-09T10:50:40.806Z,23.31
2017-07-09T10:51:56.542Z,23.11
2017-07-09T10:53:12.382Z,22.98
2017-07-09T10:54:28.173Z,22.63
2017-07-09T10:55:43.708Z,22.43
2017-07-09T10:57:13.230Z,22.3
2017-07-09T10:58:28.751Z,22.21
2017-07-09T10:59:43.018Z,22.08
2017-07-09T11:00:58.222Z,22.01
2017-07-09T11:02:13.940Z,21.96
2017-07-09T11:03:29.587Z,21.86
2017-07-09T11:04:45.271Z,21.94
2017-07-09T11:06:00.977Z,21.93
2017-07-09T11:07:16.730Z,21.93
2017-07-09T11:08:32.229Z,21.97
2017-07-09T11:09:47.689Z,21.97
2017-07-09T11:11:03.226Z,21.88
2017-07-09T11:12:18.962Z,21.94
2017-07-09T11:13:34.429Z,22.01
2017-07-09T11:14:49.963Z,22.01
2017-07-09T11:16:05.471Z,22.03
2017-07-09T11:17:19.964Z,22.12
2017-07-09T11:18:35.435Z,22.24
2017-07-09T11:19:51.129Z,22.45
2017-07-09T11:21:06.640Z,22.71
2017-07-09T11:22:22.385Z,23.05
2017-07-09T11:23:37.872Z,23.39
2017-07-09T11:24:53.556Z,23.48
2017-07-09T11:26:08.991Z,23.63
2017-07-09T11:27:24.714Z,23.75
2017-07-09T11:28:40.448Z,23.79
2017-07-09T11:29:56.259Z,23.77
2017-07-09T11:31:11.783Z,23.82
2017-07-09T11:32:27.505Z,23.65
2017-07-09T11:33:43.111Z,23.6
2017-07-09T11:34:58.676Z,23.46
2017-07-09T11:36:14.180Z,23.35
2017-07-09T11:37:29.925Z,23.18
2017-07-09T11:38:45.489Z,23.14
2017-07-09T11:40:00.994Z,23.03
2017-07-09T11:41:16.558Z,22.83
2017-07-09T11:42:32.393Z,22.87
2017-07-09T11:43:46.571Z,22.78
2017-07-09T11:45:02.135Z,22.78
2017-07-09T11:46:17.664Z,22.75
2017-07-09T11:47:33.628Z,22.68
2017-07-09T11:48:49.074Z,22.48
2017-07-09T11:50:03.203Z,22.58
2017-07-09T11:51:31.040Z,22.43
2017-07-09T11:52:46.938Z,22.4
2017-07-09T11:54:02.443Z,22.38
2017-07-09T11:55:17.956Z,22.27
2017-07-09T11:56:33.433Z,22.26
2017-07-09T11:57:48.843Z,22.28
2017-07-09T11:59:04.344Z,22.33
2017-07-09T12:00:19.904Z,22.33
2017-07-09T12:01:34.078Z,22.33
2017-07-09T12:02:49.782Z,22.42
2017-07-09T12:04:05.246Z,22.46
2017-07-09T12:05:20.776Z,22.46
2017-07-09T12:06:36.270Z,22.5
2017-07-09T12:07:52.137Z,22.63
2017-07-09T12:09:07.653Z,22.89
2017-07-09T12:10:23.132Z,23.2
2017-07-09T12:11:38.595Z,23.5
2017-07-09T12:12:54.334Z,23.72
2017-07-09T12:14:09.816Z,23.91
2017-07-09T12:15:25.313Z,24.17
2017-07-09T12:16:40.804Z,24.32
2017-07-09T12:17:56.592Z,24.7
2017-07-09T12:19:12.361Z,24.91
2017-07-09T12:20:27.935Z,25.06
2017-07-09T12:21:43.383Z,25.19
2017-07-09T12:22:59.090Z,25.22
2017-07-09T12:24:14.587Z,25.22
2017-07-09T12:25:29.883Z,25.17
2017-07-09T12:26:45.776Z,25.18
2017-07-09T12:28:01.577Z,25.31
2017-07-09T12:29:17.230Z,25.34
2017-07-09T12:30:31.384Z,25.44
2017-07-09T12:31:47.279Z,25.28
2017-07-09T12:33:03.044Z,25.18
2017-07-09T12:34:18.727Z,25.19
2017-07-09T12:35:34.429Z,25.22
2017-07-09T12:37:20.649Z,25.4
2017-07-09T12:39:07.199Z,25.34
2017-07-09T12:40:22.706Z,25.25
2017-07-09T12:41:38.170Z,25.02
2017-07-09T12:42:53.623Z,25.03
2017-07-09T12:44:08.063Z,24.92
2017-07-09T12:45:23.558Z,24.88
2017-07-09T12:46:39.405Z,24.91
2017-07-09T12:47:55.068Z,24.91
2017-07-09T12:49:10.837Z,24.92
2017-07-09T12:50:26.327Z,24.88
2017-07-09T12:51:41.935Z,24.9
2017-07-09T12:52:57.405Z,24.78
2017-07-09T12:54:13.294Z,24.62
2017-07-09T12:55:28.768Z,24.63
2017-07-09T12:56:44.235Z,24.32
2017-07-09T12:57:59.785Z,24.35
2017-07-09T12:59:15.514Z,24.25
2017-07-09T13:00:30.971Z,24.25
2017-07-09T13:01:46.669Z,24.2
2017-07-09T13:03:02.189Z,24.05
2017-07-09T13:04:16.640Z,24.06
2017-07-09T13:05:32.168Z,24
2017-07-09T13:06:47.730Z,23.83
2017-07-09T13:08:03.165Z,23.76
2017-07-09T13:09:18.926Z,23.76
2017-07-09T13:10:34.409Z,23.79
2017-07-09T13:11:49.953Z,23.72
2017-07-09T13:13:05.435Z,23.68
2017-07-09T13:14:21.208Z,23.7
2017-07-09T13:15:37.094Z,23.69
2017-07-09T13:16:52.692Z,23.64
2017-07-09T13:18:08.187Z,23.65
2017-07-09T13:19:23.952Z,23.6
2017-07-09T13:20:39.648Z,23.64
2017-07-09T13:21:55.385Z,23.63
2017-07-09T13:23:10.827Z,23.58
2017-07-09T13:24:26.634Z,23.53
2017-07-09T13:25:42.194Z,23.54
2017-07-09T13:26:57.679Z,23.42
2017-07-09T13:28:13.140Z,23.33
2017-07-09T13:29:28.685Z,23.4
2017-07-09T13:30:43.899Z,23.42
2017-07-09T13:31:59.339Z,23.46
2017-07-09T13:33:14.911Z,23.45
2017-07-09T13:34:30.607Z,23.57
2017-07-09T13:35:46.324Z,23.57
2017-07-09T13:37:01.908Z,23.57
2017-07-09T13:38:17.381Z,23.57
2017-07-09T13:39:33.155Z,23.5
2017-07-09T13:40:48.788Z,23.54
2017-07-09T13:42:04.312Z,23.6
2017-07-09T13:43:19.788Z,23.73
2017-07-09T13:44:35.528Z,23.7
2017-07-09T13:45:51.053Z,23.68
2017-07-09T13:47:06.962Z,23.77
2017-07-09T13:48:22.454Z,23.75
2017-07-09T13:49:36.903Z,23.79
2017-07-09T13:50:52.467Z,23.77
2017-07-09T13:52:08.056Z,23.79
2017-07-09T13:53:23.918Z,23.79
2017-07-09T13:54:39.654Z,23.77
2017-07-09T13:55:55.180Z,23.75
2017-07-09T13:57:10.698Z,23.82
2017-07-09T13:58:26.249Z,23.69
2017-07-09T13:59:42.022Z,23.72
2017-07-09T14:00:57.538Z,23.75
2017-07-09T14:02:13.183Z,23.64
2017-07-09T14:03:27.677Z,23.73
2017-07-09T14:04:43.458Z,23.64
2017-07-09T14:05:58.955Z,23.63
2017-07-09T14:07:14.577Z,23.58
2017-07-09T14:08:30.209Z,23.64
2017-07-09T14:09:45.939Z,23.61
2017-07-09T14:11:01.391Z,23.57
2017-07-09T14:12:15.532Z,23.57
2017-07-09T14:13:31.132Z,23.54
2017-07-09T14:14:46.816Z,23.5
2017-07-09T14:16:02.489Z,23.45
2017-07-09T14:17:18.026Z,23.5
2017-07-09T14:18:31.934Z,23.48
2017-07-09T14:19:47.801Z,23.43
2017-07-09T14:21:03.329Z,23.36
2017-07-09T14:22:18.778Z,23.35
2017-07-09T14:23:34.479Z,23.33
2017-07-09T14:24:50.198Z,23.35
2017-07-09T14:26:05.321Z,23.35
2017-07-09T14:27:21.010Z,23.35
2017-07-09T14:28:36.528Z,23.4
2017-07-09T14:29:52.298Z,23.42
2017-07-09T14:31:07.795Z,23.46
2017-07-09T14:32:21.958Z,23.42
2017-07-09T14:33:37.493Z,23.35
2017-07-09T14:34:53.245Z,23.36
2017-07-09T14:36:08.924Z,23.35
2017-07-09T14:37:23.141Z,23.42
2017-07-09T14:38:38.657Z,23.39
2017-07-09T14:39:54.543Z,23.36
2017-07-09T14:41:10.021Z,23.35
2017-07-09T14:42:25.538Z,23.36
2017-07-09T14:43:41.236Z,23.33
2017-07-09T14:44:55.729Z,23.32
2017-07-09T14:46:11.325Z,23.35
2017-07-09T14:47:26.800Z,23.36
2017-07-09T14:48:42.245Z,23.35
2017-07-09T14:49:57.981Z,23.38
2017-07-09T14:51:10.878Z,23.35
2017-07-09T14:52:26.561Z,23.32
2017-07-09T14:53:42.025Z,23.38
2017-07-09T14:54:57.766Z,23.39
2017-07-09T14:56:13.439Z,23.35
2017-07-09T14:57:29.337Z,23.24
2017-07-09T14:58:44.811Z,23.16
2017-07-09T15:00:00.548Z,23.23
2017-07-09T15:01:16.082Z,23.23
2017-07-09T15:02:31.613Z,23.21
2017-07-09T15:03:45.653Z,23.23
2017-07-09T15:05:01.379Z,23.17
2017-07-09T15:06:17.029Z,23.18
2017-07-09T15:07:32.513Z,23.21
2017-07-09T15:08:48.010Z,23.21
2017-07-09T15:10:03.752Z,23.16
2017-07-09T15:11:17.931Z,23.21
2017-07-09T15:12:33.701Z,23.2
2017-07-09T15:13:49.596Z,23.17
2017-07-09T15:15:05.368Z,23.16
2017-07-09T15:16:20.840Z,23.25
2017-07-09T15:17:36.361Z,23.2
2017-07-09T15:18:51.508Z,23.17
2017-07-09T15:20:07.498Z,23.16
2017-07-09T15:21:23.021Z,23.21
2017-07-09T15:22:38.530Z,23.17
2017-07-09T15:23:54.023Z,23.17
2017-07-09T15:25:09.748Z,23.2
2017-07-09T15:26:23.871Z,23.09
2017-07-09T15:27:39.603Z,23.17
2017-07-09T15:28:55.128Z,23.21
2017-07-09T15:30:10.863Z,23.2
2017-07-09T15:31:26.373Z,23.25
2017-07-09T15:32:41.966Z,23.21
2017-07-09T15:33:57.469Z,23.21
2017-07-09T15:35:13.402Z,23.14
2017-07-09T15:36:29.039Z,23.18
2017-07-09T15:37:44.552Z,23.11
2017-07-09T15:39:00.038Z,23.06
2017-07-09T15:40:15.814Z,23.02
2017-07-09T15:41:31.444Z,23.01
2017-07-09T15:42:46.984Z,22.86
2017-07-09T15:44:02.471Z,22.86
2017-07-09T15:45:18.346Z,22.95
2017-07-09T15:46:34.136Z,22.9
2017-07-09T15:47:49.663Z,22.87
2017-07-09T15:49:05.175Z,22.86
2017-07-09T15:50:20.958Z,22.89
2017-07-09T15:51:36.668Z,22.86
2017-07-09T15:52:52.167Z,22.75
2017-07-09T15:54:07.648Z,22.79
2017-07-09T15:55:23.469Z,22.82
2017-07-09T15:56:39.002Z,22.78
2017-07-09T15:57:54.525Z,22.83
2017-07-09T15:59:10.004Z,22.87
2017-07-09T16:00:26.189Z,22.87
2017-07-09T16:01:41.770Z,22.86
2017-07-09T16:02:57.290Z,22.87
2017-07-09T16:04:12.887Z,22.98
2017-07-09T16:05:29.000Z,23.02
2017-07-09T16:06:44.503Z,23.05
2017-07-09T16:07:59.988Z,23.16
2017-07-09T16:09:15.886Z,23.18
2017-07-09T16:10:31.665Z,23.14
2017-07-09T16:11:47.294Z,23.2
2017-07-09T16:13:02.761Z,23.16
2017-07-09T16:14:18.219Z,23.06
2017-07-09T16:15:33.941Z,23.09
2017-07-09T16:16:49.566Z,23.21
2017-07-09T16:18:04.976Z,23.13
2017-07-09T16:19:19.184Z,23.06
2017-07-09T16:20:33.597Z,23.08
2017-07-09T16:21:49.179Z,23.03
2017-07-09T16:23:04.707Z,23.02
2017-07-09T16:24:20.390Z,23.03
2017-07-09T16:25:36.139Z,23.06